sensor_id;sensor_type;location;lat;lon;timestamp;pressure;altitude;pressure_sealevel;temperature;humidity
41254;BME280;26987;59.928;30.306;2022-09-20T00:01:10;99301.66;;;9.55;100.00
41254;BME280;26987;59.928;30.306;2022-09-20T00:03:39;99304.09;;;9.56;100.00
41254;BME280;26987;59.928;30.306;2022-09-20T00:06:10;99307.03;;;9.55;100.00
41254;BME280;26987;59.928;30.306;2022-09-20T00:08:38;99311.69;;;9.48;100.00
41254;BME280;26987;59.928;30.306;2022-09-20T00:11:08;99319.59;;;9.54;100.00
41254;BME280;26987;59.928;30.306;2022-09-20T00:13:38;99323.91;;;9.55;100.00
41254;BME280;26987;59.928;30.306;2022-09-20T00:16:10;99330.06;;;9.56;100.00
41254;BME280;26987;59.928;30.306;2022-09-20T00:18:39;99334.59;;;9.55;100.00
41254;BME280;26987;59.928;30.306;2022-09-20T00:21:14;99345.66;;;9.59;100.00
41254;BME280;26987;59.928;30.306;2022-09-20T00:23:42;99346.69;;;9.58;100.00
41254;BME280;26987;59.928;30.306;2022-09-20T00:26:11;99357.63;;;9.56;100.00
41254;BME280;26987;59.928;30.306;2022-09-20T00:28:39;99362.75;;;9.58;100.00
41254;BME280;26987;59.928;30.306;2022-09-20T00:31:09;99361.13;;;9.57;100.00
41254;BME280;26987;59.928;30.306;2022-09-20T00:33:38;99369.63;;;9.54;100.00
41254;BME280;26987;59.928;30.306;2022-09-20T00:36:23;99373.22;;;9.71;100.00
41254;BME280;26987;59.928;30.306;2022-09-20T00:38:55;99375.66;;;9.61;100.00
41254;BME280;26987;59.928;30.306;2022-09-20T00:41:23;99383.38;;;9.57;100.00
41254;BME280;26987;59.928;30.306;2022-09-20T00:43:52;99379.41;;;9.60;100.00
41254;BME280;26987;59.928;30.306;2022-09-20T00:46:26;99383.69;;;9.61;100.00
41254;BME280;26987;59.928;30.306;2022-09-20T00:48:59;99385.34;;;9.62;100.00
41254;BME280;26987;59.928;30.306;2022-09-20T00:51:30;99390.69;;;9.74;100.00
41254;BME280;26987;59.928;30.306;2022-09-20T00:54:01;99394.16;;;9.63;100.00
41254;BME280;26987;59.928;30.306;2022-09-20T00:56:33;99396.59;;;9.64;100.00
41254;BME280;26987;59.928;30.306;2022-09-20T00:59:14;99399.06;;;9.66;100.00
41254;BME280;26987;59.928;30.306;2022-09-20T01:01:48;99407.31;;;9.64;100.00
41254;BME280;26987;59.928;30.306;2022-09-20T01:04:21;99412.66;;;9.64;100.00
41254;BME280;26987;59.928;30.306;2022-09-20T01:06:52;99399.19;;;9.59;100.00
41254;BME280;26987;59.928;30.306;2022-09-20T01:09:21;99421.28;;;9.66;100.00
41254;BME280;26987;59.928;30.306;2022-09-20T01:11:49;99416.75;;;9.67;100.00
41254;BME280;26987;59.928;30.306;2022-09-20T01:14:18;99414.31;;;9.65;100.00
41254;BME280;26987;59.928;30.306;2022-09-20T01:16:50;99427.47;;;9.67;100.00
41254;BME280;26987;59.928;30.306;2022-09-20T01:19:30;99423.97;;;9.66;100.00
41254;BME280;26987;59.928;30.306;2022-09-20T01:22:04;99419.53;;;9.60;100.00
41254;BME280;26987;59.928;30.306;2022-09-20T01:24:41;99434.66;;;9.66;100.00
41254;BME280;26987;59.928;30.306;2022-09-20T01:27:15;99440.25;;;9.65;100.00
41254;BME280;26987;59.928;30.306;2022-09-20T01:30:14;99438.88;;;9.74;100.00
41254;BME280;26987;59.928;30.306;2022-09-20T01:32:55;99440.34;;;9.70;100.00
41254;BME280;26987;59.928;30.306;2022-09-20T01:35:25;99442.69;;;9.66;100.00
41254;BME280;26987;59.928;30.306;2022-09-20T01:38:11;99452.13;;;9.69;100.00
41254;BME280;26987;59.928;30.306;2022-09-20T01:40:47;99451.28;;;9.68;100.00
41254;BME280;26987;59.928;30.306;2022-09-20T01:43:25;99460.16;;;9.69;100.00
41254;BME280;26987;59.928;30.306;2022-09-20T01:46:01;99467.94;;;9.70;100.00
41254;BME280;26987;59.928;30.306;2022-09-20T01:48:34;99459.59;;;9.67;100.00
41254;BME280;26987;59.928;30.306;2022-09-20T01:51:28;99472.97;;;9.79;100.00
41254;BME280;26987;59.928;30.306;2022-09-20T01:54:20;99470.16;;;9.74;100.00
41254;BME280;26987;59.928;30.306;2022-09-20T01:57:25;99472.97;;;9.79;100.00
41254;BME280;26987;59.928;30.306;2022-09-20T02:00:06;99481.09;;;9.72;100.00
41254;BME280;26987;59.928;30.306;2022-09-20T02:11:39;99493.88;;;9.70;99.80
41254;BME280;26987;59.928;30.306;2022-09-20T02:14:37;99496.09;;;9.73;100.00
41254;BME280;26987;59.928;30.306;2022-09-20T02:17:13;99507.28;;;9.70;99.27
41254;BME280;26987;59.928;30.306;2022-09-20T02:20:05;99505.41;;;9.70;99.87
41254;BME280;26987;59.928;30.306;2022-09-20T02:22:46;99514.72;;;9.68;99.61
41254;BME280;26987;59.928;30.306;2022-09-20T02:25:33;99518.69;;;9.65;100.00
41254;BME280;26987;59.928;30.306;2022-09-20T02:28:16;99520.09;;;9.68;99.78
41254;BME280;26987;59.928;30.306;2022-09-20T02:30:55;99519.72;;;9.64;100.00
41254;BME280;26987;59.928;30.306;2022-09-20T02:33:39;99534.97;;;9.64;100.00
41254;BME280;26987;59.928;30.306;2022-09-20T02:36:26;99538.69;;;9.63;100.00
41254;BME280;26987;59.928;30.306;2022-09-20T02:39:02;99545.31;;;9.60;100.00
41254;BME280;26987;59.928;30.306;2022-09-20T02:41:53;99541.94;;;9.65;100.00
41254;BME280;26987;59.928;30.306;2022-09-20T02:44:37;99548.59;;;9.62;100.00
41254;BME280;26987;59.928;30.306;2022-09-20T02:47:18;99553.13;;;9.62;100.00
41254;BME280;26987;59.928;30.306;2022-09-20T02:50:13;99555.56;;;9.63;100.00
41254;BME280;26987;59.928;30.306;2022-09-20T02:52:57;99558.94;;;9.58;100.00
41254;BME280;26987;59.928;30.306;2022-09-20T02:55:37;99561.00;;;9.56;100.00
41254;BME280;26987;59.928;30.306;2022-09-20T02:58:20;99568.22;;;9.56;100.00
41254;BME280;26987;59.928;30.306;2022-09-20T03:00:53;99573.00;;;9.54;100.00
41254;BME280;26987;59.928;30.306;2022-09-20T03:03:33;99582.91;;;9.53;100.00
41254;BME280;26987;59.928;30.306;2022-09-20T03:06:10;99583.13;;;9.52;100.00
41254;BME280;26987;59.928;30.306;2022-09-20T03:08:48;99590.66;;;9.55;100.00
41254;BME280;26987;59.928;30.306;2022-09-20T03:11:28;99590.66;;;9.55;100.00
41254;BME280;26987;59.928;30.306;2022-09-20T03:14:08;99583.81;;;9.47;100.00
41254;BME280;26987;59.928;30.306;2022-09-20T03:16:49;99593.59;;;9.53;100.00
41254;BME280;26987;59.928;30.306;2022-09-20T03:19:27;99598.69;;;9.55;100.00
41254;BME280;26987;59.928;30.306;2022-09-20T03:22:03;99600.66;;;9.48;100.00
41254;BME280;26987;59.928;30.306;2022-09-20T03:24:38;99610.72;;;9.64;100.00
41254;BME280;26987;59.928;30.306;2022-09-20T03:27:15;99614.19;;;9.53;100.00
41254;BME280;26987;59.928;30.306;2022-09-20T03:29:58;99631.06;;;9.53;100.00
41254;BME280;26987;59.928;30.306;2022-09-20T03:32:43;99624.06;;;9.52;100.00
41254;BME280;26987;59.928;30.306;2022-09-20T03:35:25;99623.78;;;9.42;100.00
41254;BME280;26987;59.928;30.306;2022-09-20T03:38:04;99637.88;;;9.49;100.00
41254;BME280;26987;59.928;30.306;2022-09-20T03:44:04;99645.13;;;9.49;100.00
41254;BME280;26987;59.928;30.306;2022-09-20T03:46:42;99654.78;;;9.50;100.00
41254;BME280;26987;59.928;30.306;2022-09-20T03:50:03;99656.53;;;9.56;100.00
41254;BME280;26987;59.928;30.306;2022-09-20T03:52:59;99658.41;;;9.55;100.00
41254;BME280;26987;59.928;30.306;2022-09-20T03:55:56;99666.44;;;9.55;100.00
41254;BME280;26987;59.928;30.306;2022-09-20T03:58:45;99675.50;;;9.54;100.00
41254;BME280;26987;59.928;30.306;2022-09-20T04:01:31;99683.31;;;9.56;100.00
41254;BME280;26987;59.928;30.306;2022-09-20T04:04:06;99682.69;;;9.54;100.00
41254;BME280;26987;59.928;30.306;2022-09-20T04:07:00;99686.94;;;9.62;100.00
41254;BME280;26987;59.928;30.306;2022-09-20T04:09:46;99691.47;;;9.61;100.00
41254;BME280;26987;59.928;30.306;2022-09-20T04:12:25;99694.50;;;9.65;100.00
41254;BME280;26987;59.928;30.306;2022-09-20T04:15:07;99702.31;;;9.66;100.00
41254;BME280;26987;59.928;30.306;2022-09-20T04:17:48;99705.13;;;9.71;100.00
41254;BME280;26987;59.928;30.306;2022-09-20T04:20:23;99719.25;;;9.79;100.00
41254;BME280;26987;59.928;30.306;2022-09-20T04:22:55;99721.94;;;10.21;98.50
41254;BME280;26987;59.928;30.306;2022-09-20T04:25:28;99733.22;;;11.14;93.53
41254;BME280;26987;59.928;30.306;2022-09-20T04:28:03;99723.34;;;11.85;89.05
41254;BME280;26987;59.928;30.306;2022-09-20T04:30:35;99733.47;;;12.24;86.52
41254;BME280;26987;59.928;30.306;2022-09-20T04:33:17;99745.25;;;12.23;86.20
41254;BME280;26987;59.928;30.306;2022-09-20T04:35:51;99748.31;;;11.85;86.76
41254;BME280;26987;59.928;30.306;2022-09-20T04:38:40;99749.72;;;11.47;88.36
41254;BME280;26987;59.928;30.306;2022-09-20T04:41:19;99751.38;;;11.36;89.68
41254;BME280;26987;59.928;30.306;2022-09-20T04:44:32;99761.31;;;11.12;90.94
41254;BME280;26987;59.928;30.306;2022-09-20T04:47:38;99766.47;;;11.01;92.40
41254;BME280;26987;59.928;30.306;2022-09-20T04:50:25;99759.84;;;10.80;92.81
41254;BME280;26987;59.928;30.306;2022-09-20T04:53:17;99774.63;;;10.82;93.02
41254;BME280;26987;59.928;30.306;2022-09-20T04:55:50;99777.16;;;10.65;93.03
41254;BME280;26987;59.928;30.306;2022-09-20T04:58:35;99789.06;;;10.69;93.76
41254;BME280;26987;59.928;30.306;2022-09-20T05:01:33;99797.59;;;10.66;94.24
41254;BME280;26987;59.928;30.306;2022-09-20T05:13:29;99824.34;;;10.54;94.09
41254;BME280;26987;59.928;30.306;2022-09-20T05:16:07;99825.50;;;10.46;94.27
41254;BME280;26987;59.928;30.306;2022-09-20T05:19:05;99835.06;;;10.54;95.05
41254;BME280;26987;59.928;30.306;2022-09-20T05:22:02;99836.34;;;10.52;94.56
41254;BME280;26987;59.928;30.306;2022-09-20T05:27:42;99847.81;;;10.40;95.04
41254;BME280;26987;59.928;30.306;2022-09-20T05:30:23;99856.00;;;10.45;95.05
41254;BME280;26987;59.928;30.306;2022-09-20T05:32:59;99861.38;;;10.45;95.30
41254;BME280;26987;59.928;30.306;2022-09-20T05:35:36;99863.44;;;10.43;94.74
41254;BME280;26987;59.928;30.306;2022-09-20T05:38:14;99878.47;;;10.44;95.01
41254;BME280;26987;59.928;30.306;2022-09-20T05:41:02;99879.91;;;10.47;95.27
41254;BME280;26987;59.928;30.306;2022-09-20T05:43:32;99877.88;;;10.42;95.24
41254;BME280;26987;59.928;30.306;2022-09-20T05:46:15;99872.91;;;10.46;95.43
41254;BME280;26987;59.928;30.306;2022-09-20T05:48:54;99890.78;;;10.52;95.01
41254;BME280;26987;59.928;30.306;2022-09-20T05:51:34;99883.81;;;10.44;95.11
41254;BME280;26987;59.928;30.306;2022-09-20T05:54:27;99892.78;;;10.57;94.82
41254;BME280;26987;59.928;30.306;2022-09-20T05:57:13;99903.28;;;10.58;94.64
41254;BME280;26987;59.928;30.306;2022-09-20T05:59:56;99911.88;;;10.60;94.54
41254;BME280;26987;59.928;30.306;2022-09-20T06:02:37;99913.88;;;10.65;94.65
41254;BME280;26987;59.928;30.306;2022-09-20T06:05:12;99921.25;;;10.70;94.31
41254;BME280;26987;59.928;30.306;2022-09-20T06:08:08;99916.38;;;10.79;94.27
41254;BME280;26987;59.928;30.306;2022-09-20T06:11:01;99925.06;;;10.93;93.87
41254;BME280;26987;59.928;30.306;2022-09-20T06:13:58;99926.69;;;10.94;92.78
41254;BME280;26987;59.928;30.306;2022-09-20T06:16:36;99942.69;;;11.01;92.45
41254;BME280;26987;59.928;30.306;2022-09-20T06:19:15;99955.31;;;11.12;91.79
41254;BME280;26987;59.928;30.306;2022-09-20T06:21:51;99957.06;;;11.18;91.00
41254;BME280;26987;59.928;30.306;2022-09-20T06:24:35;99960.47;;;11.26;90.62
41254;BME280;26987;59.928;30.306;2022-09-20T06:27:08;99970.88;;;11.22;89.79
41254;BME280;26987;59.928;30.306;2022-09-20T06:29:41;99971.19;;;11.26;89.64
41254;BME280;26987;59.928;30.306;2022-09-20T06:32:15;99974.94;;;11.25;89.81
41254;BME280;26987;59.928;30.306;2022-09-20T06:34:43;99977.94;;;11.16;89.60
41254;BME280;26987;59.928;30.306;2022-09-20T06:37:21;99986.13;;;11.21;89.52
41254;BME280;26987;59.928;30.306;2022-09-20T06:40:20;99993.28;;;11.28;88.91
41254;BME280;26987;59.928;30.306;2022-09-20T06:43:09;99999.91;;;11.37;88.03
41254;BME280;26987;59.928;30.306;2022-09-20T06:45:41;100001.13;;;11.41;87.51
41254;BME280;26987;59.928;30.306;2022-09-20T06:48:09;100015.56;;;11.40;87.08
41254;BME280;26987;59.928;30.306;2022-09-20T06:50:38;100006.00;;;11.32;87.55
41254;BME280;26987;59.928;30.306;2022-09-20T06:53:10;100031.56;;;11.35;87.74
41254;BME280;26987;59.928;30.306;2022-09-20T06:55:41;100030.38;;;11.31;87.52
41254;BME280;26987;59.928;30.306;2022-09-20T06:58:10;100044.25;;;11.28;88.01
41254;BME280;26987;59.928;30.306;2022-09-20T07:00:38;100045.88;;;11.29;87.95
41254;BME280;26987;59.928;30.306;2022-09-20T07:03:07;100048.34;;;11.30;88.06
41254;BME280;26987;59.928;30.306;2022-09-20T07:05:37;100040.38;;;11.23;87.50
41254;BME280;26987;59.928;30.306;2022-09-20T07:08:06;100060.94;;;11.30;87.60
41254;BME280;26987;59.928;30.306;2022-09-20T07:10:34;100060.25;;;11.34;87.58
41254;BME280;26987;59.928;30.306;2022-09-20T07:13:02;100068.00;;;11.43;87.71
41254;BME280;26987;59.928;30.306;2022-09-20T07:15:31;100065.78;;;11.52;87.24
41254;BME280;26987;59.928;30.306;2022-09-20T07:17:59;100070.59;;;11.61;86.31
41254;BME280;26987;59.928;30.306;2022-09-20T07:20:28;100075.88;;;11.68;86.08
41254;BME280;26987;59.928;30.306;2022-09-20T07:22:56;100088.38;;;11.75;85.66
41254;BME280;26987;59.928;30.306;2022-09-20T07:25:25;100093.03;;;11.79;85.56
41254;BME280;26987;59.928;30.306;2022-09-20T07:27:53;100101.84;;;11.86;84.78
41254;BME280;26987;59.928;30.306;2022-09-20T07:30:21;100093.41;;;11.83;84.62
41254;BME280;26987;59.928;30.306;2022-09-20T07:32:49;100106.53;;;12.03;83.86
41254;BME280;26987;59.928;30.306;2022-09-20T07:35:17;100112.66;;;12.22;83.01
41254;BME280;26987;59.928;30.306;2022-09-20T07:37:46;100115.81;;;12.31;82.18
41254;BME280;26987;59.928;30.306;2022-09-20T07:40:14;100115.66;;;12.38;81.75
41254;BME280;26987;59.928;30.306;2022-09-20T07:42:42;100130.41;;;12.47;82.27
41254;BME280;26987;59.928;30.306;2022-09-20T07:45:11;100123.25;;;12.53;81.31
41254;BME280;26987;59.928;30.306;2022-09-20T07:47:39;100129.69;;;12.64;80.48
41254;BME280;26987;59.928;30.306;2022-09-20T07:50:10;100142.56;;;12.74;80.55
41254;BME280;26987;59.928;30.306;2022-09-20T07:52:38;100152.59;;;12.79;80.57
41254;BME280;26987;59.928;30.306;2022-09-20T07:55:07;100156.94;;;12.80;80.30
41254;BME280;26987;59.928;30.306;2022-09-20T07:57:36;100159.84;;;12.78;80.01
41254;BME280;26987;59.928;30.306;2022-09-20T08:00:06;100158.78;;;12.79;80.22
41254;BME280;26987;59.928;30.306;2022-09-20T08:02:41;100161.03;;;12.70;80.43
41254;BME280;26987;59.928;30.306;2022-09-20T08:05:10;100159.28;;;12.64;79.87
41254;BME280;26987;59.928;30.306;2022-09-20T08:07:38;100170.84;;;12.65;79.87
41254;BME280;26987;59.928;30.306;2022-09-20T08:10:08;100177.41;;;12.57;80.01
41254;BME280;26987;59.928;30.306;2022-09-20T08:12:36;100186.41;;;12.51;80.63
41254;BME280;26987;59.928;30.306;2022-09-20T08:15:05;100190.16;;;12.49;80.62
41254;BME280;26987;59.928;30.306;2022-09-20T08:17:33;100186.16;;;12.52;80.41
41254;BME280;26987;59.928;30.306;2022-09-20T08:20:01;100196.81;;;12.59;80.58
41254;BME280;26987;59.928;30.306;2022-09-20T08:22:30;100202.31;;;12.64;80.28
41254;BME280;26987;59.928;30.306;2022-09-20T08:24:58;100199.50;;;12.59;79.81
41254;BME280;26987;59.928;30.306;2022-09-20T08:27:27;100217.75;;;12.69;79.72
41254;BME280;26987;59.928;30.306;2022-09-20T08:29:55;100223.13;;;12.69;79.66
41254;BME280;26987;59.928;30.306;2022-09-20T08:32:23;100237.63;;;12.68;80.03
41254;BME280;26987;59.928;30.306;2022-09-20T08:34:51;100231.44;;;12.79;79.74
41254;BME280;26987;59.928;30.306;2022-09-20T08:37:19;100235.75;;;12.80;79.55
41254;BME280;26987;59.928;30.306;2022-09-20T08:39:46;100238.66;;;12.79;79.04
41254;BME280;26987;59.928;30.306;2022-09-20T08:42:21;100252.47;;;12.82;79.31
41254;BME280;26987;59.928;30.306;2022-09-20T08:44:56;100251.88;;;12.80;79.67
41254;BME280;26987;59.928;30.306;2022-09-20T08:47:27;100256.22;;;12.81;79.42
41254;BME280;26987;59.928;30.306;2022-09-20T08:49:56;100258.31;;;12.91;79.74
41254;BME280;26987;59.928;30.306;2022-09-20T08:52:29;100249.91;;;12.99;79.13
41254;BME280;26987;59.928;30.306;2022-09-20T08:54:57;100271.44;;;12.99;78.41
41254;BME280;26987;59.928;30.306;2022-09-20T08:57:29;100276.47;;;13.08;78.89
41254;BME280;26987;59.928;30.306;2022-09-20T09:00:02;100270.84;;;13.21;77.87
41254;BME280;26987;59.928;30.306;2022-09-20T09:02:31;100276.44;;;13.32;77.22
41254;BME280;26987;59.928;30.306;2022-09-20T09:04:59;100287.44;;;13.30;76.53
41254;BME280;26987;59.928;30.306;2022-09-20T09:07:29;100281.50;;;13.28;76.42
41254;BME280;26987;59.928;30.306;2022-09-20T09:09:58;100296.09;;;13.32;76.73
41254;BME280;26987;59.928;30.306;2022-09-20T09:12:29;100299.84;;;13.43;76.94
41254;BME280;26987;59.928;30.306;2022-09-20T09:15:20;100307.91;;;13.67;77.21
41254;BME280;26987;59.928;30.306;2022-09-20T09:17:52;100312.09;;;13.63;76.63
41254;BME280;26987;59.928;30.306;2022-09-20T09:20:21;100321.47;;;13.48;76.50
41254;BME280;26987;59.928;30.306;2022-09-20T09:22:58;100325.25;;;13.47;77.00
41254;BME280;26987;59.928;30.306;2022-09-20T09:25:27;100322.19;;;13.32;76.76
41254;BME280;26987;59.928;30.306;2022-09-20T09:27:58;100330.50;;;13.30;76.95
41254;BME280;26987;59.928;30.306;2022-09-20T09:30:30;100327.13;;;13.35;77.02
41254;BME280;26987;59.928;30.306;2022-09-20T09:33:32;100340.78;;;13.69;77.14
41254;BME280;26987;59.928;30.306;2022-09-20T09:36:05;100335.09;;;13.54;76.05
41254;BME280;26987;59.928;30.306;2022-09-20T09:38:35;100337.56;;;13.55;75.89
41254;BME280;26987;59.928;30.306;2022-09-20T09:41:05;100355.22;;;13.63;75.23
41254;BME280;26987;59.928;30.306;2022-09-20T09:43:35;100349.94;;;13.68;74.91
41254;BME280;26987;59.928;30.306;2022-09-20T09:46:17;100361.06;;;13.84;74.96
41254;BME280;26987;59.928;30.306;2022-09-20T09:48:48;100354.75;;;13.66;74.14
41254;BME280;26987;59.928;30.306;2022-09-20T09:51:30;100372.09;;;13.70;74.42
41254;BME280;26987;59.928;30.306;2022-09-20T09:53:59;100367.50;;;13.71;74.11
41254;BME280;26987;59.928;30.306;2022-09-20T09:56:47;100381.63;;;13.90;74.74
41254;BME280;26987;59.928;30.306;2022-09-20T09:59:26;100387.00;;;14.14;74.16
41254;BME280;26987;59.928;30.306;2022-09-20T10:02:02;100390.56;;;13.79;73.65
41254;BME280;26987;59.928;30.306;2022-09-20T10:04:45;100397.25;;;13.76;74.20
41254;BME280;26987;59.928;30.306;2022-09-20T10:07:19;100397.38;;;13.69;74.07
41254;BME280;26987;59.928;30.306;2022-09-20T10:09:59;100413.75;;;13.80;74.10
41254;BME280;26987;59.928;30.306;2022-09-20T10:12:45;100417.72;;;13.89;74.28
41254;BME280;26987;59.928;30.306;2022-09-20T10:15:25;100422.88;;;13.91;73.99
41254;BME280;26987;59.928;30.306;2022-09-20T10:18:06;100427.72;;;13.89;74.17
41254;BME280;26987;59.928;30.306;2022-09-20T10:21:03;100428.16;;;13.97;74.41
41254;BME280;26987;59.928;30.306;2022-09-20T10:23:46;100443.16;;;13.93;74.23
41254;BME280;26987;59.928;30.306;2022-09-20T10:26:37;100448.78;;;13.92;73.78
41254;BME280;26987;59.928;30.306;2022-09-20T10:29:13;100441.88;;;13.84;73.89
41254;BME280;26987;59.928;30.306;2022-09-20T10:31:54;100449.13;;;13.95;73.42
41254;BME280;26987;59.928;30.306;2022-09-20T10:34:51;100463.28;;;14.15;73.79
41254;BME280;26987;59.928;30.306;2022-09-20T10:37:29;100460.34;;;14.16;73.35
41254;BME280;26987;59.928;30.306;2022-09-20T10:40:06;100458.56;;;14.22;73.06
41254;BME280;26987;59.928;30.306;2022-09-20T10:42:41;100467.47;;;14.22;72.61
41254;BME280;26987;59.928;30.306;2022-09-20T10:45:35;100462.09;;;14.22;72.41
41254;BME280;26987;59.928;30.306;2022-09-20T10:48:11;100474.19;;;14.20;72.69
41254;BME280;26987;59.928;30.306;2022-09-20T10:50:50;100474.41;;;14.18;73.22
41254;BME280;26987;59.928;30.306;2022-09-20T10:53:28;100463.41;;;14.08;73.29
41254;BME280;26987;59.928;30.306;2022-09-20T10:56:13;100479.13;;;14.11;73.33
41254;BME280;26987;59.928;30.306;2022-09-20T10:59:01;100479.00;;;14.06;73.47
41254;BME280;26987;59.928;30.306;2022-09-20T11:01:37;100480.28;;;14.03;73.21
41254;BME280;26987;59.928;30.306;2022-09-20T11:07:08;100495.22;;;14.47;71.57
41254;BME280;26987;59.928;30.306;2022-09-20T11:09:41;100491.88;;;14.57;70.89
41254;BME280;26987;59.928;30.306;2022-09-20T11:12:13;100498.13;;;14.57;70.59
41254;BME280;26987;59.928;30.306;2022-09-20T11:14:48;100503.34;;;14.64;70.26
41254;BME280;26987;59.928;30.306;2022-09-20T11:17:22;100514.34;;;14.74;70.41
41254;BME280;26987;59.928;30.306;2022-09-20T11:19:55;100518.94;;;14.86;70.23
41254;BME280;26987;59.928;30.306;2022-09-20T11:22:33;100519.88;;;15.09;69.51
41254;BME280;26987;59.928;30.306;2022-09-20T11:25:10;100521.03;;;15.13;68.71
41254;BME280;26987;59.928;30.306;2022-09-20T11:27:43;100527.69;;;15.22;68.74
41254;BME280;26987;59.928;30.306;2022-09-20T11:30:15;100539.72;;;15.32;68.42
41254;BME280;26987;59.928;30.306;2022-09-20T11:32:48;100544.72;;;15.40;67.53
41254;BME280;26987;59.928;30.306;2022-09-20T11:35:26;100548.75;;;15.55;66.99
41254;BME280;26987;59.928;30.306;2022-09-20T11:38:08;100549.16;;;15.63;67.27
41254;BME280;26987;59.928;30.306;2022-09-20T11:40:42;100548.31;;;15.46;66.83
41254;BME280;26987;59.928;30.306;2022-09-20T11:43:15;100553.66;;;15.41;67.38
41254;BME280;26987;59.928;30.306;2022-09-20T11:45:48;100561.31;;;15.32;68.15
41254;BME280;26987;59.928;30.306;2022-09-20T11:48:22;100562.97;;;15.33;68.78
41254;BME280;26987;59.928;30.306;2022-09-20T11:51:15;100565.69;;;15.33;69.48
41254;BME280;26987;59.928;30.306;2022-09-20T11:53:58;100568.34;;;15.16;69.21
41254;BME280;26987;59.928;30.306;2022-09-20T11:56:31;100576.16;;;15.00;68.65
41254;BME280;26987;59.928;30.306;2022-09-20T11:59:01;100583.19;;;15.01;69.04
41254;BME280;26987;59.928;30.306;2022-09-20T12:01:33;100587.94;;;15.11;69.01
41254;BME280;26987;59.928;30.306;2022-09-20T12:04:07;100590.28;;;15.19;67.09
41254;BME280;26987;59.928;30.306;2022-09-20T12:06:39;100592.97;;;15.19;65.65
41254;BME280;26987;59.928;30.306;2022-09-20T12:09:22;100599.47;;;15.35;65.25
41254;BME280;26987;59.928;30.306;2022-09-20T12:11:51;100599.53;;;15.23;64.15
41254;BME280;26987;59.928;30.306;2022-09-20T12:14:22;100600.97;;;15.14;64.34
41254;BME280;26987;59.928;30.306;2022-09-20T12:16:51;100603.16;;;15.00;65.11
41254;BME280;26987;59.928;30.306;2022-09-20T12:19:35;100609.72;;;15.04;66.16
41254;BME280;26987;59.928;30.306;2022-09-20T12:22:16;100608.31;;;14.90;66.67
41254;BME280;26987;59.928;30.306;2022-09-20T12:27:58;100621.28;;;14.63;66.99
41254;BME280;26987;59.928;30.306;2022-09-20T12:30:26;100629.72;;;14.55;67.35
41254;BME280;26987;59.928;30.306;2022-09-20T12:32:58;100631.25;;;14.63;68.07
41254;BME280;26987;59.928;30.306;2022-09-20T12:35:59;100636.03;;;14.97;68.22
41254;BME280;26987;59.928;30.306;2022-09-20T12:38:59;100637.41;;;14.99;67.61
41254;BME280;26987;59.928;30.306;2022-09-20T12:41:28;100642.09;;;15.04;66.57
41254;BME280;26987;59.928;30.306;2022-09-20T12:44:27;100652.34;;;15.31;66.20
41254;BME280;26987;59.928;30.306;2022-09-20T12:46:58;100654.81;;;15.33;64.88
41254;BME280;26987;59.928;30.306;2022-09-20T12:49:48;100655.03;;;15.60;65.05
41254;BME280;26987;59.928;30.306;2022-09-20T12:52:47;100667.50;;;15.61;64.61
41254;BME280;26987;59.928;30.306;2022-09-20T12:55:40;100673.50;;;15.51;64.77
41254;BME280;26987;59.928;30.306;2022-09-20T12:58:35;100667.72;;;15.60;65.10
41254;BME280;26987;59.928;30.306;2022-09-20T13:01:29;100677.16;;;15.57;64.80
41254;BME280;26987;59.928;30.306;2022-09-20T13:10:18;100678.25;;;15.15;66.13
41254;BME280;26987;59.928;30.306;2022-09-20T13:12:51;100688.81;;;14.93;67.16
41254;BME280;26987;59.928;30.306;2022-09-20T13:15:20;100686.50;;;14.72;67.74
41254;BME280;26987;59.928;30.306;2022-09-20T13:17:52;100687.53;;;14.59;68.64
41254;BME280;26987;59.928;30.306;2022-09-20T13:20:24;100694.22;;;14.57;68.77
41254;BME280;26987;59.928;30.306;2022-09-20T13:22:55;100686.38;;;14.43;68.96
41254;BME280;26987;59.928;30.306;2022-09-20T13:25:25;100689.28;;;14.30;69.29
41254;BME280;26987;59.928;30.306;2022-09-20T13:28:01;100691.53;;;14.33;69.88
41254;BME280;26987;59.928;30.306;2022-09-20T13:30:32;100698.31;;;14.23;70.58
41254;BME280;26987;59.928;30.306;2022-09-20T13:33:18;100698.56;;;14.34;72.16
41254;BME280;26987;59.928;30.306;2022-09-20T13:35:48;100703.91;;;14.10;72.97
41254;BME280;26987;59.928;30.306;2022-09-20T13:38:26;100713.03;;;13.97;73.81
41254;BME280;26987;59.928;30.306;2022-09-20T13:41:00;100714.19;;;13.89;74.65
41254;BME280;26987;59.928;30.306;2022-09-20T13:43:36;100720.47;;;13.83;75.05
41254;BME280;26987;59.928;30.306;2022-09-20T13:46:09;100716.59;;;13.79;75.54
41254;BME280;26987;59.928;30.306;2022-09-20T13:48:39;100724.19;;;13.70;75.86
41254;BME280;26987;59.928;30.306;2022-09-20T13:51:16;100728.44;;;13.78;75.67
41254;BME280;26987;59.928;30.306;2022-09-20T13:53:45;100704.84;;;13.61;75.08
41254;BME280;26987;59.928;30.306;2022-09-20T13:56:17;100734.88;;;13.77;74.70
41254;BME280;26987;59.928;30.306;2022-09-20T13:58:47;100738.25;;;13.72;75.54
41254;BME280;26987;59.928;30.306;2022-09-20T14:01:23;100741.53;;;13.74;76.05
41254;BME280;26987;59.928;30.306;2022-09-20T14:03:59;100746.13;;;13.73;75.80
41254;BME280;26987;59.928;30.306;2022-09-20T14:06:30;100746.13;;;13.73;75.38
41254;BME280;26987;59.928;30.306;2022-09-20T14:09:01;100750.91;;;13.71;75.27
41254;BME280;26987;59.928;30.306;2022-09-20T14:11:31;100754.13;;;13.61;74.81
41254;BME280;26987;59.928;30.306;2022-09-20T14:14:04;100762.69;;;13.58;74.77